Extreme weather reports worldwide

High gusts

Station
 
Location
 
Name
 
Wind
Knots
Gust
Knots
Vis
SM
Temp/Dew
C
Baro
inHg
METAR
 
KMWN 43 54 0 5/5 KMWN 232152Z 29043G54KT 0SM FG VV000 05/05 RMK
ANX ENAN Andenes, NO Andøya Airport 37 51 6.21 7/4 29.26 ENAN 232150Z AUTO 27037G51KT 9999 FEW014/// BKN019/// OVC034/// 07/04 Q0991
TOS ENTC Tromsø, NO Tromsø Airport 38 51 5.59 8/3 29.11 ENTC 232150Z 22038G51KT 9000 -SHRA BKN042 08/03 Q0986 RMK WIND 2600FT 21049G69KT
AKV CYKO Akulivik, CA Akulivik Airport 31 42 3 2/1 29.21 CYKO 232100Z 30031G42KT 3SM -RA BR OVC011 02/01 A2921 RMK SC8 LAST/OBS NXT/OBS 24/1200Z SLP893
PUQ SCCI Punta Arenas, CL Pdte. Carlos Ibañez del Campo Airport 31 42 6.21 10/2 29.41 SCCI 232200Z 30031G42KT 9999 FEW028 BKN064 10/02 Q0996 NOSIG

Station
 
Location
 
Name
 
Wind
Knots
Gust
Knots
Vis
SM
Temp/Dew
C
Baro
inHg
METAR
 
CZF PACZ Cape Romanzof, US Cape Romanzof LRRS Airport 34 41 10 5/0 29.61 PACZ 232200Z AUTO 02034G41KT 10SM BKN024 05/00 A2961 RMK AO2 SLP030
RGA SAWE Rio Grande, AR Hermes Quijada International Airport 30 40 6.21 12/3 29.38 SAWE 232200Z 29030G40KT 9999 SCT020 12/03 Q0995
HVG ENHV Honningsvåg, NO Valan Airport 23 38 6.21 9/6 29.08 ENHV 232120Z 19023G38KT 150V230 9999 -RA BKN017 09/06 Q0985
ACZ OIZB IR Zabol Airport 27 37 6.21 21/-3 29.82 OIZB 232100Z 34027G37KT CAVOK 21/M03 Q1010
CXNM 22 37 / CXNM 232200Z AUTO 28022G37KT RMK AO1 1PAST HR M PK WND 28037/2155 P0008 50036
YPH CYPH Inukjuak, CA Inukjuak Airport 22 37 9 5/1 29.56 CYPH 232200Z AUTO 29022G37KT 9SM BKN027 05/01 A2956 RMK SLP013
ONP KONP Newport, US Newport Municipal Airport 25 36 1.5 16/15 29.84 KONP 232155Z AUTO 19025G36KT 1 1/2SM RA OVC007 16/15 A2984 RMK AO2 P0012
MOB KMOB Mobile, US Mobile Regional Airport 17 36 10 26/21 29.89 KMOB 232156Z 13017G36KT 10SM BKN024 BKN050 BKN150 27/21 A2989 RMK AO2 PK WND 13036/2152 SLP118 T02670211
YPW CYPW Powell River, CA Powell River Airport 18 36 20 16/14 29.55 CYPW 232200Z 11018G36KT 070V140 20SM BKN008 BKN045 16/14 A2955 RMK SC6SC1 CIG VRB 6-10 SLP009 DENSITY ALT 1100FT
PER YPPH Perth, AU Perth International Airport 23 36 6.21 13/6 30.06 YPPH 232200Z 09023G36KT CAVOK 13/06 Q1018 FM2200 MOD TURB BLW 5000FT
LKL ENNA Lakselv, NO Banak Airport 15 35 6.21 11/5 29.11 ENNA 232150Z AUTO 14015G35KT 100V190 9999 FEW026/// BKN035/// 11/05 Q0986 RMK WIND 1800FT 15012G25KT
YPS CYPD Port Hawkesbury, CA Port Hawkesbury Airport 19 35 9 12/10 29.36 CYPD 232200Z AUTO 29019G35KT 9SM OVC015 12/10 A2936 RMK SLP944 DENSITY ALT 700FT
PDL LPPD Ponta Delgada, PT João Paulo II Airport 23 35 6.21 18/13 30.21 LPPD 232200Z 03023G35KT 9999 FEW012 SCT016 18/13 Q1023 WS R30
LPB SLLP La Paz / El Alto, BO El Alto International Airport 23 35 6.21 13/-26 30.68 SLLP 232200Z 10023G35KT 9999 FEW017 13/M26 Q1039
CWZQ 27 34 12/11 CWZQ 232200Z AUTO 28027G34KT 13/11 RMK AO1 PK WND 28036/2131 SLP928 T01280110 51063
YGR CYGR ÃŽles-de-la-Madeleine, CA ÃŽles-de-la-Madeleine Airport 25 34 6 11/11 29.26 CYGR 232207Z 30025G34KT 6SM -RA BR OVC010 11/11 A2926 RMK SC8 SLP909 DENSITY ALT 400FT
K77S 19 33 10 29/10 29.82 K77S 232155Z AUTO 19019G33KT 10SM FEW070 29/10 A2982 RMK A01
KBDN Bend, US Bend Municipal Airport 16 33 8 25/6 29.97 KBDN 232155Z AUTO 23016G33KT 8SM CLR 25/06 A2997 RMK AO2
NUW KNUW Oak Harbor, US Whidbey Island Naval Air Station (Ault Field) 25 33 10 17/13 29.69 KNUW 232156Z 15025G33KT 10SM -RA BKN020 BKN055 OVC100 18/14 A2969 RMK AO2 PK WND 15038/2102 SLP052 P0001 T01780139
YZS CYZS Coral Harbour, CA Coral Harbour Airport 24 33 15 1/-2 29.74 CYZS 232200Z 02024G33KT 15SM BKN020 OVC120 01/M02 A2974 RMK SC7AC1 SLP078
CDB PACD Cold Bay, US Cold Bay Airport 20 32 10 10/3 29.56 PACD 232153Z 34020G32KT 10SM FEW027 FEW034 BKN042 10/04 A2956 RMK AO2 PK WND 33035/2132 SLP008 T01000039
OGG PHOG Kahului, US Kahului Airport 17 31 10 31/21 30.03 PHOG 232154Z 05017G31KT 10SM FEW022 SCT040 SCT055 31/21 A3003 RMK AO2 PK WND 05031/2151 SLP175 T03110211
KS39 17 31 10 26/4 29.95 KS39 232155Z AUTO 22017G31KT 10SM 26/04 A2995 RMK AO2
OTK KTMK Tillamook, US Tillamook Airport 20 31 1.75 17/15 29.79 KTMK 232155Z AUTO 21020G31KT 1 3/4SM RA BKN011 OVC021 17/15 A2979 RMK AO2 P0025
OOK PAOO Toksook Bay, US Toksook Bay Airport 28 31 10 6/0 29.63 PAOO 232156Z AUTO 33028G31KT 10SM BKN029 07/00 A2963 RMK AO2 PK WND 33031/2155 SLP039 T00670000 TSNO
YJT CYJT Stephenville, CA Stephenville Airport 25 31 4 14/13 29.06 CYJT 232200Z 23025G31KT 4SM -RA BR SCT009 OVC013 14/13 A2906 RMK SF4SF4 PRESRR SLP843 DENSITY ALT 1000FT
YTE CYTE Cape Dorset, CA Cape Dorset Airport 21 30 9 2/1 29.39 CYTE 232154Z AUTO 07021G30KT 9SM -RA OVC010 02/01 A2939 RMK SLP957
KS21 17 30 8 21/5 30.04 KS21 232155Z AUTO 21017G30KT 8SM CLR 21/05 A3004 RMK AO2
NLG PAOU Nelson Lagoon, US Nelson Lagoon Airport 25 30 8 8/5 29.48 PAOU 232156Z AUTO 02025G30KT 8SM BKN022 OVC029 09/05 A2948 RMK AO2 PK WND 02031/2128 SLP983 T00890050 PNO $
SDP PASD Sand Point, US Sand Point Airport 22 30 10 10/2 29.43 PASD 232156Z 33022G30KT 10SM SCT022 BKN039 10/03 A2943 RMK AO2 PK WND 32030/2147 SLP968 T01000028 PNO $
EHM PAEH Cape Newenham, US Cape Newenham LRRS Airport 25 30 10 6/3 29.48 PAEH 232157Z AUTO 35025G30KT 10SM OVC015 06/03 A2948 RMK AO2 SLP988
CWEP 25 30 / CWEP 232200Z AUTO 27025G30KT RMK AO1 1043 PK WND 27039/2113 50011
CWGR 24 30 11/10 CWGR 232200Z AUTO 29024G30KT 11/10 RMK AO1 1069 PK WND 30032/2142 SLP906 T01140103 50004
CWUW 22 30 -3/-5 29.86 CWUW 232200Z AUTO 08022G30KT ////SM BKN015 M03/M05 A2986
YYF CYYF Penticton, CA Penticton Airport 21 30 15 16/11 29.77 CYYF 232200Z 18021G30KT 15SM -RA SCT072 BKN110 OVC150 16/11 A2977 RMK AC3AC3AC2 SLP082 DENSITY ALT 1700FT
IBR RJAH Omitama, JP Ibaraki Airport / JASDF Hyakuri Air Base 19 30 6.21 21/17 29.91 RJAH 232200Z 03019G30KT 9999 FEW006 BKN020 BKN040 21/17 Q1013
YPEA Bullsbrook, AU RAAF Base Pearce 20 30 6.21 15/5 30.06 YPEA 232200Z 08020G30KT CAVOK 15/05 Q1018 FM2200 MOD TURB BLW 5000FT
CUZ SPZO Cusco, PE Alejandro Velasco Astete International Airport 15 29 6.21 19/-3 30.41 SPZO 232100Z 01015G29KT 9999 NSC 19/M03 Q1030 NOSIG RMK BIRD HAZARD RWY 28 PP000
RWL KRWL Rawlins, US Rawlins Municipal Airport/Harvey Field 14 29 10 23/-5 30.25 KRWL 232153Z AUTO 28014G29KT 10SM CLR 24/M05 A3025 RMK AO2 PK WND 25033/2102 SLP154 T02391050
EUG KEUG Eugene, US Mahlon Sweet Field 21 29 10 27/11 29.82 KEUG 232154Z 22021G29KT 10SM FEW035 BKN065 BKN075 27/12 A2982 RMK AO2 PK WND 19032/2126 SLP095 T02720117
EHVK Uden, NL Volkel Air Base 16 29 6.21 17/14 29.50 EHVK 232155Z AUTO 19016G29KT 140V230 9999 SHRA SCT015CB SCT037 BKN049 17/14 Q0999 REDZ WHT
K4S1 16 29 3 20/14 29.96 K4S1 232155Z AUTO 19016G29KT 3SM HZ OVC030 20/14 A2996 RMK AO2
OTH KOTH North Bend, US Southwest Oregon Regional Airport 19 29 10 23/16 29.89 KOTH 232156Z 20019G29KT 10SM -RA OVC037 23/16 A2989 RMK AO2 PK WND 19033/2104 RAB46 SLP120 P0000 T02330161
KSXT 15 29 10 19/6 30.05 KSXT 232156Z AUTO 20015G29KT 10SM FEW039 SCT050 BKN065 19/07 A3005 RMK AO2 PK WND 22030/2131 SLP139 T01940067
K1FM 20 29 10 23/0 29.95 K1FM 232158Z AUTO 23020G29KT 10SM CLR 23/01 A2995 RMK AO2 SLP126 T02340009 $